sensor_id;sensor_type;location;lat;lon;timestamp;temperature;humidity
74511;DHT22;62991;50.040;18.400;2022-10-16T00:00:30;15.70;64.80
74511;DHT22;62991;50.040;18.400;2022-10-16T00:03:31;15.70;64.80
74511;DHT22;62991;50.040;18.400;2022-10-16T00:06:32;15.70;64.80
74511;DHT22;62991;50.040;18.400;2022-10-16T00:09:33;15.70;64.80
74511;DHT22;62991;50.040;18.400;2022-10-16T00:12:33;15.70;64.70
74511;DHT22;62991;50.040;18.400;2022-10-16T00:15:36;15.70;64.70
74511;DHT22;62991;50.040;18.400;2022-10-16T00:18:37;15.70;64.70
74511;DHT22;62991;50.040;18.400;2022-10-16T00:21:38;15.70;64.70
74511;DHT22;62991;50.040;18.400;2022-10-16T00:24:39;15.70;64.60
74511;DHT22;62991;50.040;18.400;2022-10-16T00:27:40;15.70;64.60
74511;DHT22;62991;50.040;18.400;2022-10-16T00:30:40;15.70;64.70
74511;DHT22;62991;50.040;18.400;2022-10-16T00:33:41;15.70;64.70
74511;DHT22;62991;50.040;18.400;2022-10-16T00:36:42;15.70;64.80
74511;DHT22;62991;50.040;18.400;2022-10-16T00:39:43;15.70;64.70
74511;DHT22;62991;50.040;18.400;2022-10-16T00:42:43;15.70;64.70
74511;DHT22;62991;50.040;18.400;2022-10-16T00:45:44;15.70;64.70
74511;DHT22;62991;50.040;18.400;2022-10-16T00:49:12;15.70;64.60
74511;DHT22;62991;50.040;18.400;2022-10-16T00:52:13;15.80;64.60
74511;DHT22;62991;50.040;18.400;2022-10-16T00:55:14;15.70;64.50
74511;DHT22;62991;50.040;18.400;2022-10-16T00:58:15;15.70;64.50
74511;DHT22;62991;50.040;18.400;2022-10-16T01:01:16;15.80;64.50
74511;DHT22;62991;50.040;18.400;2022-10-16T01:04:17;15.80;64.40
74511;DHT22;62991;50.040;18.400;2022-10-16T01:07:47;15.80;64.30
74511;DHT22;62991;50.040;18.400;2022-10-16T01:11:17;15.80;64.40
74511;DHT22;62991;50.040;18.400;2022-10-16T01:14:41;15.80;64.30
74511;DHT22;62991;50.040;18.400;2022-10-16T01:24:11;15.80;64.30
74511;DHT22;62991;50.040;18.400;2022-10-16T01:30:30;15.70;64.30
74511;DHT22;62991;50.040;18.400;2022-10-16T01:33:40;15.70;64.30
74511;DHT22;62991;50.040;18.400;2022-10-16T01:37:05;15.70;64.20
74511;DHT22;62991;50.040;18.400;2022-10-16T01:40:11;15.80;64.20
74511;DHT22;62991;50.040;18.400;2022-10-16T01:43:17;15.80;64.20
74511;DHT22;62991;50.040;18.400;2022-10-16T01:46:21;15.80;64.20
74511;DHT22;62991;50.040;18.400;2022-10-16T01:49:25;15.80;64.20
74511;DHT22;62991;50.040;18.400;2022-10-16T01:52:27;15.90;64.10
74511;DHT22;62991;50.040;18.400;2022-10-16T01:55:32;15.90;64.00
74511;DHT22;62991;50.040;18.400;2022-10-16T01:58:37;15.90;64.00
74511;DHT22;62991;50.040;18.400;2022-10-16T02:01:44;15.90;64.00
74511;DHT22;62991;50.040;18.400;2022-10-16T02:04:49;15.80;64.00
74511;DHT22;62991;50.040;18.400;2022-10-16T02:07:52;15.80;64.00
74511;DHT22;62991;50.040;18.400;2022-10-16T02:10:53;15.80;64.00
74511;DHT22;62991;50.040;18.400;2022-10-16T02:14:04;15.80;64.00
74511;DHT22;62991;50.040;18.400;2022-10-16T02:17:12;15.80;63.90
74511;DHT22;62991;50.040;18.400;2022-10-16T02:20:13;15.80;64.00
74511;DHT22;62991;50.040;18.400;2022-10-16T02:23:19;15.90;63.90
74511;DHT22;62991;50.040;18.400;2022-10-16T02:26:34;15.90;63.80
74511;DHT22;62991;50.040;18.400;2022-10-16T02:29:40;15.90;63.80
74511;DHT22;62991;50.040;18.400;2022-10-16T02:32:46;15.90;63.80
74511;DHT22;62991;50.040;18.400;2022-10-16T02:35:48;16.00;63.70
74511;DHT22;62991;50.040;18.400;2022-10-16T02:38:51;16.00;63.70
74511;DHT22;62991;50.040;18.400;2022-10-16T02:41:53;16.00;63.60
74511;DHT22;62991;50.040;18.400;2022-10-16T02:44:53;16.00;63.70
74511;DHT22;62991;50.040;18.400;2022-10-16T02:47:54;16.00;63.70
74511;DHT22;62991;50.040;18.400;2022-10-16T02:50:55;16.00;63.60
74511;DHT22;62991;50.040;18.400;2022-10-16T02:53:55;15.90;63.60
74511;DHT22;62991;50.040;18.400;2022-10-16T02:56:56;15.90;63.70
74511;DHT22;62991;50.040;18.400;2022-10-16T02:59:57;15.90;63.70
74511;DHT22;62991;50.040;18.400;2022-10-16T03:02:58;15.90;63.70
74511;DHT22;62991;50.040;18.400;2022-10-16T03:05:58;15.90;63.70
74511;DHT22;62991;50.040;18.400;2022-10-16T03:08:59;15.90;63.70
74511;DHT22;62991;50.040;18.400;2022-10-16T03:12:00;15.90;63.80
74511;DHT22;62991;50.040;18.400;2022-10-16T03:15:01;15.90;63.80
74511;DHT22;62991;50.040;18.400;2022-10-16T03:18:01;15.90;63.80
74511;DHT22;62991;50.040;18.400;2022-10-16T03:21:02;15.90;63.80
74511;DHT22;62991;50.040;18.400;2022-10-16T03:24:03;15.90;63.70
74511;DHT22;62991;50.040;18.400;2022-10-16T03:27:04;15.90;63.70
74511;DHT22;62991;50.040;18.400;2022-10-16T03:30:05;15.90;63.80
74511;DHT22;62991;50.040;18.400;2022-10-16T03:33:06;15.90;63.80
74511;DHT22;62991;50.040;18.400;2022-10-16T03:36:06;15.80;63.70
74511;DHT22;62991;50.040;18.400;2022-10-16T03:39:07;15.80;63.70
74511;DHT22;62991;50.040;18.400;2022-10-16T03:42:08;15.80;63.70
74511;DHT22;62991;50.040;18.400;2022-10-16T03:45:09;15.80;63.70
74511;DHT22;62991;50.040;18.400;2022-10-16T03:48:10;15.90;63.70
74511;DHT22;62991;50.040;18.400;2022-10-16T03:51:11;15.90;63.70
74511;DHT22;62991;50.040;18.400;2022-10-16T03:54:11;15.90;63.70
74511;DHT22;62991;50.040;18.400;2022-10-16T03:57:12;15.90;63.60
74511;DHT22;62991;50.040;18.400;2022-10-16T04:00:13;15.90;63.70
74511;DHT22;62991;50.040;18.400;2022-10-16T04:03:14;15.90;63.60
74511;DHT22;62991;50.040;18.400;2022-10-16T04:06:14;15.90;63.60
74511;DHT22;62991;50.040;18.400;2022-10-16T04:09:15;15.90;63.60
74511;DHT22;62991;50.040;18.400;2022-10-16T04:12:16;15.90;63.60
74511;DHT22;62991;50.040;18.400;2022-10-16T04:15:17;15.90;63.60
74511;DHT22;62991;50.040;18.400;2022-10-16T04:18:17;15.80;63.60
74511;DHT22;62991;50.040;18.400;2022-10-16T04:21:18;15.80;63.70
74511;DHT22;62991;50.040;18.400;2022-10-16T04:24:19;15.80;63.70
74511;DHT22;62991;50.040;18.400;2022-10-16T04:27:19;15.80;63.70
74511;DHT22;62991;50.040;18.400;2022-10-16T04:30:21;15.70;63.80
74511;DHT22;62991;50.040;18.400;2022-10-16T04:33:22;15.70;63.80
74511;DHT22;62991;50.040;18.400;2022-10-16T04:36:22;15.70;63.80
74511;DHT22;62991;50.040;18.400;2022-10-16T04:39:23;15.70;63.80
74511;DHT22;62991;50.040;18.400;2022-10-16T04:42:24;15.70;63.90
74511;DHT22;62991;50.040;18.400;2022-10-16T04:45:25;15.70;63.80
74511;DHT22;62991;50.040;18.400;2022-10-16T04:48:26;15.70;63.80
74511;DHT22;62991;50.040;18.400;2022-10-16T04:51:27;15.70;63.80
74511;DHT22;62991;50.040;18.400;2022-10-16T04:54:28;15.70;63.90
74511;DHT22;62991;50.040;18.400;2022-10-16T04:57:29;15.70;63.80
74511;DHT22;62991;50.040;18.400;2022-10-16T05:00:30;15.70;63.90
74511;DHT22;62991;50.040;18.400;2022-10-16T05:03:30;15.70;63.80
74511;DHT22;62991;50.040;18.400;2022-10-16T05:06:31;15.70;63.90
74511;DHT22;62991;50.040;18.400;2022-10-16T05:09:32;15.70;63.90
74511;DHT22;62991;50.040;18.400;2022-10-16T05:12:33;15.70;63.90
74511;DHT22;62991;50.040;18.400;2022-10-16T05:15:34;15.70;63.90
74511;DHT22;62991;50.040;18.400;2022-10-16T05:18:34;15.70;63.90
74511;DHT22;62991;50.040;18.400;2022-10-16T05:21:35;15.70;64.00
74511;DHT22;62991;50.040;18.400;2022-10-16T05:24:36;15.70;63.90
74511;DHT22;62991;50.040;18.400;2022-10-16T05:27:36;15.70;63.90
74511;DHT22;62991;50.040;18.400;2022-10-16T05:30:37;15.70;63.90
74511;DHT22;62991;50.040;18.400;2022-10-16T05:33:39;15.70;63.90
74511;DHT22;62991;50.040;18.400;2022-10-16T05:36:39;15.80;63.80
74511;DHT22;62991;50.040;18.400;2022-10-16T05:39:40;15.80;63.80
74511;DHT22;62991;50.040;18.400;2022-10-16T05:42:41;15.80;63.80
74511;DHT22;62991;50.040;18.400;2022-10-16T05:45:41;15.80;63.80
74511;DHT22;62991;50.040;18.400;2022-10-16T05:48:43;15.80;63.80
74511;DHT22;62991;50.040;18.400;2022-10-16T05:51:43;15.80;63.80
74511;DHT22;62991;50.040;18.400;2022-10-16T05:54:44;15.80;63.70
74511;DHT22;62991;50.040;18.400;2022-10-16T05:57:45;15.80;63.70
74511;DHT22;62991;50.040;18.400;2022-10-16T06:00:53;15.90;63.70
74511;DHT22;62991;50.040;18.400;2022-10-16T06:03:54;15.90;63.70
74511;DHT22;62991;50.040;18.400;2022-10-16T06:06:58;15.90;63.80
74511;DHT22;62991;50.040;18.400;2022-10-16T06:10:00;15.90;63.70
74511;DHT22;62991;50.040;18.400;2022-10-16T06:13:01;16.00;63.80
74511;DHT22;62991;50.040;18.400;2022-10-16T06:16:03;16.00;63.70
74511;DHT22;62991;50.040;18.400;2022-10-16T06:19:04;16.10;63.60
74511;DHT22;62991;50.040;18.400;2022-10-16T06:22:08;16.10;63.60
74511;DHT22;62991;50.040;18.400;2022-10-16T06:25:09;16.10;63.60
74511;DHT22;62991;50.040;18.400;2022-10-16T06:28:09;16.20;63.60
74511;DHT22;62991;50.040;18.400;2022-10-16T06:31:12;16.20;63.50
74511;DHT22;62991;50.040;18.400;2022-10-16T06:34:13;16.30;63.50
74511;DHT22;62991;50.040;18.400;2022-10-16T06:37:13;16.30;63.40
74511;DHT22;62991;50.040;18.400;2022-10-16T06:40:14;16.30;63.40
74511;DHT22;62991;50.040;18.400;2022-10-16T06:43:15;16.30;63.40
74511;DHT22;62991;50.040;18.400;2022-10-16T06:46:18;16.40;63.40
74511;DHT22;62991;50.040;18.400;2022-10-16T06:49:19;16.40;63.30
74511;DHT22;62991;50.040;18.400;2022-10-16T06:52:22;16.50;63.30
74511;DHT22;62991;50.040;18.400;2022-10-16T06:55:24;16.50;63.30
74511;DHT22;62991;50.040;18.400;2022-10-16T06:58:24;16.50;63.20
74511;DHT22;62991;50.040;18.400;2022-10-16T07:01:26;16.50;63.20
74511;DHT22;62991;50.040;18.400;2022-10-16T07:04:27;16.60;63.10
74511;DHT22;62991;50.040;18.400;2022-10-16T07:07:27;16.60;63.10
74511;DHT22;62991;50.040;18.400;2022-10-16T07:10:28;16.70;63.10
74511;DHT22;62991;50.040;18.400;2022-10-16T07:13:29;16.70;63.00
74511;DHT22;62991;50.040;18.400;2022-10-16T07:16:31;16.80;62.90
74511;DHT22;62991;50.040;18.400;2022-10-16T07:19:32;16.80;62.90
74511;DHT22;62991;50.040;18.400;2022-10-16T07:22:33;16.90;62.80
74511;DHT22;62991;50.040;18.400;2022-10-16T07:25:34;16.90;62.70
74511;DHT22;62991;50.040;18.400;2022-10-16T07:28:34;16.90;62.70
74511;DHT22;62991;50.040;18.400;2022-10-16T07:31:35;17.00;62.60
74511;DHT22;62991;50.040;18.400;2022-10-16T07:34:36;17.00;62.50
74511;DHT22;62991;50.040;18.400;2022-10-16T07:37:37;17.10;62.40
74511;DHT22;62991;50.040;18.400;2022-10-16T07:40:38;17.10;62.40
74511;DHT22;62991;50.040;18.400;2022-10-16T07:43:38;17.20;62.30
74511;DHT22;62991;50.040;18.400;2022-10-16T07:46:39;17.20;62.40
74511;DHT22;62991;50.040;18.400;2022-10-16T07:49:40;17.20;62.20
74511;DHT22;62991;50.040;18.400;2022-10-16T07:52:40;17.20;62.20
74511;DHT22;62991;50.040;18.400;2022-10-16T07:55:42;17.20;62.20
74511;DHT22;62991;50.040;18.400;2022-10-16T07:58:44;17.20;62.20
74511;DHT22;62991;50.040;18.400;2022-10-16T08:01:45;17.20;62.20
74511;DHT22;62991;50.040;18.400;2022-10-16T08:04:46;17.20;62.30
74511;DHT22;62991;50.040;18.400;2022-10-16T08:07:50;17.20;62.30
74511;DHT22;62991;50.040;18.400;2022-10-16T08:10:51;17.20;62.30
74511;DHT22;62991;50.040;18.400;2022-10-16T08:13:52;17.20;62.40
74511;DHT22;62991;50.040;18.400;2022-10-16T08:16:52;17.30;62.40
74511;DHT22;62991;50.040;18.400;2022-10-16T08:19:53;17.30;62.40
74511;DHT22;62991;50.040;18.400;2022-10-16T08:22:54;17.30;62.30
74511;DHT22;62991;50.040;18.400;2022-10-16T08:26:00;17.40;62.20
74511;DHT22;62991;50.040;18.400;2022-10-16T08:29:01;17.40;62.10
74511;DHT22;62991;50.040;18.400;2022-10-16T08:32:03;17.40;62.20
74511;DHT22;62991;50.040;18.400;2022-10-16T08:35:04;17.40;62.10
74511;DHT22;62991;50.040;18.400;2022-10-16T08:38:06;17.50;62.00
74511;DHT22;62991;50.040;18.400;2022-10-16T08:50:57;17.70;61.90
74511;DHT22;62991;50.040;18.400;2022-10-16T08:57:21;17.80;61.70
74511;DHT22;62991;50.040;18.400;2022-10-16T09:00:22;17.80;61.60
74511;DHT22;62991;50.040;18.400;2022-10-16T09:10:17;17.90;61.60
74511;DHT22;62991;50.040;18.400;2022-10-16T09:16:53;17.90;61.60
74511;DHT22;62991;50.040;18.400;2022-10-16T09:23:26;18.00;61.70
74511;DHT22;62991;50.040;18.400;2022-10-16T09:26:27;18.10;61.70
74511;DHT22;62991;50.040;18.400;2022-10-16T09:29:28;18.10;61.70
74511;DHT22;62991;50.040;18.400;2022-10-16T09:32:29;18.20;61.70
74511;DHT22;62991;50.040;18.400;2022-10-16T09:35:39;18.30;61.60
74511;DHT22;62991;50.040;18.400;2022-10-16T09:38:40;18.30;61.50
74511;DHT22;62991;50.040;18.400;2022-10-16T09:41:43;18.40;61.40
74511;DHT22;62991;50.040;18.400;2022-10-16T09:44:48;18.40;61.40
74511;DHT22;62991;50.040;18.400;2022-10-16T09:47:50;18.50;61.30
74511;DHT22;62991;50.040;18.400;2022-10-16T09:50:59;18.60;61.20
74511;DHT22;62991;50.040;18.400;2022-10-16T09:54:11;18.60;61.10
74511;DHT22;62991;50.040;18.400;2022-10-16T09:57:13;18.60;61.10
74511;DHT22;62991;50.040;18.400;2022-10-16T10:00:16;18.70;61.00
74511;DHT22;62991;50.040;18.400;2022-10-16T10:03:35;18.70;60.80
74511;DHT22;62991;50.040;18.400;2022-10-16T10:06:40;18.80;60.70
74511;DHT22;62991;50.040;18.400;2022-10-16T10:09:44;18.80;60.60
74511;DHT22;62991;50.040;18.400;2022-10-16T10:12:46;18.80;60.60
74511;DHT22;62991;50.040;18.400;2022-10-16T10:15:46;18.90;60.60
74511;DHT22;62991;50.040;18.400;2022-10-16T10:18:58;18.90;60.50
74511;DHT22;62991;50.040;18.400;2022-10-16T10:21:58;19.00;60.40
74511;DHT22;62991;50.040;18.400;2022-10-16T10:35:31;19.10;60.20
74511;DHT22;62991;50.040;18.400;2022-10-16T10:42:16;19.10;60.10
74511;DHT22;62991;50.040;18.400;2022-10-16T10:45:26;19.10;60.10
74511;DHT22;62991;50.040;18.400;2022-10-16T11:08:53;19.40;59.80
74511;DHT22;62991;50.040;18.400;2022-10-16T11:15:14;19.50;59.60
74511;DHT22;62991;50.040;18.400;2022-10-16T11:21:53;19.60;59.40
74511;DHT22;62991;50.040;18.400;2022-10-16T11:25:21;19.60;59.30
74511;DHT22;62991;50.040;18.400;2022-10-16T11:28:32;19.60;59.40
74511;DHT22;62991;50.040;18.400;2022-10-16T11:34:51;19.70;59.20
74511;DHT22;62991;50.040;18.400;2022-10-16T11:37:57;19.70;59.20
74511;DHT22;62991;50.040;18.400;2022-10-16T11:41:04;19.70;59.20
74511;DHT22;62991;50.040;18.400;2022-10-16T11:47:45;19.80;59.20
74511;DHT22;62991;50.040;18.400;2022-10-16T11:50:53;19.80;59.30
74511;DHT22;62991;50.040;18.400;2022-10-16T11:57:32;19.90;59.20
74511;DHT22;62991;50.040;18.400;2022-10-16T12:00:39;19.90;59.10
74511;DHT22;62991;50.040;18.400;2022-10-16T12:07:06;20.00;58.90
74511;DHT22;62991;50.040;18.400;2022-10-16T12:10:27;20.00;58.60
74511;DHT22;62991;50.040;18.400;2022-10-16T12:13:35;20.00;58.50
74511;DHT22;62991;50.040;18.400;2022-10-16T12:16:59;20.00;58.50
74511;DHT22;62991;50.040;18.400;2022-10-16T12:23:20;20.10;58.20
74511;DHT22;62991;50.040;18.400;2022-10-16T12:26:25;20.10;58.10
74511;DHT22;62991;50.040;18.400;2022-10-16T12:29:33;20.20;58.10
74511;DHT22;62991;50.040;18.400;2022-10-16T12:32:35;20.20;58.00
74511;DHT22;62991;50.040;18.400;2022-10-16T12:35:44;20.30;58.00
74511;DHT22;62991;50.040;18.400;2022-10-16T12:38:49;20.30;57.90
74511;DHT22;62991;50.040;18.400;2022-10-16T12:42:05;20.40;57.70
74511;DHT22;62991;50.040;18.400;2022-10-16T12:45:28;20.50;57.40
74511;DHT22;62991;50.040;18.400;2022-10-16T12:48:30;20.70;57.10
74511;DHT22;62991;50.040;18.400;2022-10-16T12:54:37;20.90;56.80
74511;DHT22;62991;50.040;18.400;2022-10-16T13:01:37;21.00;56.20
74511;DHT22;62991;50.040;18.400;2022-10-16T13:18:16;20.70;56.00
74511;DHT22;62991;50.040;18.400;2022-10-16T13:31:02;21.30;55.90
74511;DHT22;62991;50.040;18.400;2022-10-16T13:34:05;21.50;55.70
74511;DHT22;62991;50.040;18.400;2022-10-16T13:37:18;22.00;55.60
74511;DHT22;62991;50.040;18.400;2022-10-16T13:40:22;22.70;55.20
74511;DHT22;62991;50.040;18.400;2022-10-16T13:43:36;23.40;54.60
74511;DHT22;62991;50.040;18.400;2022-10-16T13:46:38;24.20;53.30
74511;DHT22;62991;50.040;18.400;2022-10-16T13:49:38;24.90;52.90
74511;DHT22;62991;50.040;18.400;2022-10-16T13:52:39;25.60;51.90
74511;DHT22;62991;50.040;18.400;2022-10-16T13:55:41;26.10;50.70
74511;DHT22;62991;50.040;18.400;2022-10-16T13:58:43;26.40;50.00
74511;DHT22;62991;50.040;18.400;2022-10-16T14:01:44;26.70;49.50
74511;DHT22;62991;50.040;18.400;2022-10-16T14:04:45;26.80;49.00
74511;DHT22;62991;50.040;18.400;2022-10-16T14:07:49;26.90;48.60
74511;DHT22;62991;50.040;18.400;2022-10-16T14:10:54;26.90;48.20
74511;DHT22;62991;50.040;18.400;2022-10-16T14:13:55;26.80;47.90
74511;DHT22;62991;50.040;18.400;2022-10-16T14:16:57;26.70;47.70
74511;DHT22;62991;50.040;18.400;2022-10-16T14:19:59;26.50;47.30
74511;DHT22;62991;50.040;18.400;2022-10-16T14:23:50;26.20;47.50
74511;DHT22;62991;50.040;18.400;2022-10-16T14:26:27;25.90;47.70
74511;DHT22;62991;50.040;18.400;2022-10-16T14:29:29;25.60;47.90
74511;DHT22;62991;50.040;18.400;2022-10-16T14:32:33;25.20;48.10
74511;DHT22;62991;50.040;18.400;2022-10-16T14:35:38;24.90;48.50
74511;DHT22;62991;50.040;18.400;2022-10-16T14:38:41;24.60;48.60
74511;DHT22;62991;50.040;18.400;2022-10-16T14:41:49;24.30;48.80
74511;DHT22;62991;50.040;18.400;2022-10-16T14:44:53;24.00;49.00
74511;DHT22;62991;50.040;18.400;2022-10-16T14:48:01;23.70;49.40
74511;DHT22;62991;50.040;18.400;2022-10-16T14:51:04;23.40;49.60
74511;DHT22;62991;50.040;18.400;2022-10-16T14:54:07;23.20;50.00
74511;DHT22;62991;50.040;18.400;2022-10-16T14:57:28;23.10;50.20
74511;DHT22;62991;50.040;18.400;2022-10-16T15:00:30;22.90;50.50
74511;DHT22;62991;50.040;18.400;2022-10-16T15:03:31;22.70;50.70
74511;DHT22;62991;50.040;18.400;2022-10-16T15:06:31;22.50;51.00
74511;DHT22;62991;50.040;18.400;2022-10-16T15:09:32;22.40;51.20
74511;DHT22;62991;50.040;18.400;2022-10-16T15:12:33;22.30;51.40
74511;DHT22;62991;50.040;18.400;2022-10-16T15:15:38;22.10;51.60
74511;DHT22;62991;50.040;18.400;2022-10-16T15:18:40;22.00;51.70
74511;DHT22;62991;50.040;18.400;2022-10-16T15:21:41;21.90;51.90
74511;DHT22;62991;50.040;18.400;2022-10-16T15:24:43;21.80;52.10
74511;DHT22;62991;50.040;18.400;2022-10-16T15:27:44;21.70;52.30
74511;DHT22;62991;50.040;18.400;2022-10-16T15:30:46;21.60;52.40
74511;DHT22;62991;50.040;18.400;2022-10-16T15:33:50;21.50;52.60
74511;DHT22;62991;50.040;18.400;2022-10-16T15:36:54;21.50;52.70
74511;DHT22;62991;50.040;18.400;2022-10-16T15:39:57;21.40;52.80
74511;DHT22;62991;50.040;18.400;2022-10-16T15:42:57;21.30;53.00
74511;DHT22;62991;50.040;18.400;2022-10-16T15:46:01;21.30;53.10
74511;DHT22;62991;50.040;18.400;2022-10-16T15:49:02;21.20;53.20
74511;DHT22;62991;50.040;18.400;2022-10-16T15:52:03;21.10;53.30
74511;DHT22;62991;50.040;18.400;2022-10-16T15:55:05;21.00;53.50
74511;DHT22;62991;50.040;18.400;2022-10-16T15:58:06;21.00;53.60
74511;DHT22;62991;50.040;18.400;2022-10-16T16:01:07;20.90;53.70
74511;DHT22;62991;50.040;18.400;2022-10-16T16:04:10;20.80;53.80
74511;DHT22;62991;50.040;18.400;2022-10-16T16:07:11;20.70;53.90
74511;DHT22;62991;50.040;18.400;2022-10-16T16:10:13;20.60;54.00
74511;DHT22;62991;50.040;18.400;2022-10-16T16:13:13;20.60;54.20
74511;DHT22;62991;50.040;18.400;2022-10-16T16:16:15;20.50;54.20
74511;DHT22;62991;50.040;18.400;2022-10-16T16:19:16;20.50;54.40
74511;DHT22;62991;50.040;18.400;2022-10-16T16:22:21;20.40;54.50
74511;DHT22;62991;50.040;18.400;2022-10-16T16:25:21;20.40;54.60
74511;DHT22;62991;50.040;18.400;2022-10-16T16:28:22;20.30;54.60
74511;DHT22;62991;50.040;18.400;2022-10-16T16:31:27;20.30;54.80
74511;DHT22;62991;50.040;18.400;2022-10-16T16:34:29;20.30;54.90
74511;DHT22;62991;50.040;18.400;2022-10-16T16:37:29;20.20;54.90
74511;DHT22;62991;50.040;18.400;2022-10-16T16:40:30;20.20;55.00
74511;DHT22;62991;50.040;18.400;2022-10-16T16:43:31;20.20;55.00
74511;DHT22;62991;50.040;18.400;2022-10-16T16:46:33;20.20;55.20
74511;DHT22;62991;50.040;18.400;2022-10-16T16:49:34;20.10;55.20
74511;DHT22;62991;50.040;18.400;2022-10-16T16:52:35;20.10;55.30
74511;DHT22;62991;50.040;18.400;2022-10-16T16:55:36;20.10;55.30
74511;DHT22;62991;50.040;18.400;2022-10-16T16:58:37;20.10;55.40
74511;DHT22;62991;50.040;18.400;2022-10-16T17:01:38;20.10;55.40
74511;DHT22;62991;50.040;18.400;2022-10-16T17:04:38;20.00;55.50
74511;DHT22;62991;50.040;18.400;2022-10-16T17:07:39;20.00;55.50
74511;DHT22;62991;50.040;18.400;2022-10-16T17:10:44;20.00;55.60
74511;DHT22;62991;50.040;18.400;2022-10-16T17:13:45;20.00;55.60
74511;DHT22;62991;50.040;18.400;2022-10-16T17:16:46;20.00;55.70
74511;DHT22;62991;50.040;18.400;2022-10-16T17:19:51;20.00;55.70
74511;DHT22;62991;50.040;18.400;2022-10-16T17:22:52;20.00;55.80
74511;DHT22;62991;50.040;18.400;2022-10-16T17:25:53;19.90;55.80
74511;DHT22;62991;50.040;18.400;2022-10-16T17:28:56;19.90;55.90
74511;DHT22;62991;50.040;18.400;2022-10-16T17:31:57;19.90;56.00
74511;DHT22;62991;50.040;18.400;2022-10-16T17:34:58;19.90;56.10
74511;DHT22;62991;50.040;18.400;2022-10-16T17:38:02;19.80;56.10
74511;DHT22;62991;50.040;18.400;2022-10-16T17:41:21;19.80;56.20
74511;DHT22;62991;50.040;18.400;2022-10-16T17:44:22;19.80;56.20
74511;DHT22;62991;50.040;18.400;2022-10-16T17:47:23;19.80;56.30
74511;DHT22;62991;50.040;18.400;2022-10-16T17:50:23;19.80;56.30
74511;DHT22;62991;50.040;18.400;2022-10-16T17:53:24;19.80;56.40
74511;DHT22;62991;50.040;18.400;2022-10-16T17:56:25;19.70;56.40
74511;DHT22;62991;50.040;18.400;2022-10-16T17:59:26;19.70;56.50
74511;DHT22;62991;50.040;18.400;2022-10-16T18:02:28;19.70;56.50
74511;DHT22;62991;50.040;18.400;2022-10-16T18:05:29;19.70;56.60
74511;DHT22;62991;50.040;18.400;2022-10-16T18:08:30;19.70;56.60
74511;DHT22;62991;50.040;18.400;2022-10-16T18:11:31;19.70;56.70
74511;DHT22;62991;50.040;18.400;2022-10-16T18:14:32;19.60;56.60
74511;DHT22;62991;50.040;18.400;2022-10-16T18:17:34;19.60;56.70
74511;DHT22;62991;50.040;18.400;2022-10-16T18:20:37;19.60;56.80
74511;DHT22;62991;50.040;18.400;2022-10-16T18:23:38;19.60;56.80
74511;DHT22;62991;50.040;18.400;2022-10-16T18:26:39;19.60;56.80
74511;DHT22;62991;50.040;18.400;2022-10-16T18:29:40;19.60;56.80
74511;DHT22;62991;50.040;18.400;2022-10-16T18:32:41;19.60;56.80
74511;DHT22;62991;50.040;18.400;2022-10-16T18:35:41;19.60;56.90
74511;DHT22;62991;50.040;18.400;2022-10-16T18:38:42;19.50;56.90
74511;DHT22;62991;50.040;18.400;2022-10-16T18:41:43;19.50;57.00
74511;DHT22;62991;50.040;18.400;2022-10-16T18:44:44;19.50;57.00
74511;DHT22;62991;50.040;18.400;2022-10-16T18:47:44;19.40;57.10
74511;DHT22;62991;50.040;18.400;2022-10-16T18:50:46;19.30;57.10
74511;DHT22;62991;50.040;18.400;2022-10-16T18:53:50;19.30;57.20
74511;DHT22;62991;50.040;18.400;2022-10-16T18:56:51;19.30;57.30
74511;DHT22;62991;50.040;18.400;2022-10-16T18:59:52;19.30;57.20
74511;DHT22;62991;50.040;18.400;2022-10-16T19:02:53;19.20;57.30
74511;DHT22;62991;50.040;18.400;2022-10-16T19:05:53;19.10;57.30
74511;DHT22;62991;50.040;18.400;2022-10-16T19:08:55;19.10;57.40
74511;DHT22;62991;50.040;18.400;2022-10-16T19:11:56;19.10;57.50
74511;DHT22;62991;50.040;18.400;2022-10-16T19:14:58;19.00;57.40
74511;DHT22;62991;50.040;18.400;2022-10-16T19:17:59;19.00;57.60
74511;DHT22;62991;50.040;18.400;2022-10-16T19:21:01;19.00;57.70
74511;DHT22;62991;50.040;18.400;2022-10-16T19:24:02;18.90;57.70
74511;DHT22;62991;50.040;18.400;2022-10-16T19:27:04;18.90;57.70
74511;DHT22;62991;50.040;18.400;2022-10-16T19:30:05;18.90;57.80
74511;DHT22;62991;50.040;18.400;2022-10-16T19:33:06;18.80;57.80
74511;DHT22;62991;50.040;18.400;2022-10-16T19:36:12;18.80;57.90
74511;DHT22;62991;50.040;18.400;2022-10-16T19:39:14;18.80;58.00
74511;DHT22;62991;50.040;18.400;2022-10-16T19:42:16;18.70;58.10
74511;DHT22;62991;50.040;18.400;2022-10-16T19:45:17;18.70;58.10
74511;DHT22;62991;50.040;18.400;2022-10-16T19:48:18;18.70;58.10
74511;DHT22;62991;50.040;18.400;2022-10-16T19:51:18;18.70;58.10
74511;DHT22;62991;50.040;18.400;2022-10-16T19:54:19;18.70;58.20
74511;DHT22;62991;50.040;18.400;2022-10-16T19:57:20;18.70;58.20
74511;DHT22;62991;50.040;18.400;2022-10-16T20:00:23;18.70;58.20
74511;DHT22;62991;50.040;18.400;2022-10-16T20:03:23;18.70;58.20
74511;DHT22;62991;50.040;18.400;2022-10-16T20:06:24;18.70;58.30
74511;DHT22;62991;50.040;18.400;2022-10-16T20:09:25;18.60;58.30
74511;DHT22;62991;50.040;18.400;2022-10-16T20:12:26;18.70;58.40
74511;DHT22;62991;50.040;18.400;2022-10-16T20:15:27;18.60;58.30
74511;DHT22;62991;50.040;18.400;2022-10-16T20:18:28;18.60;58.40
74511;DHT22;62991;50.040;18.400;2022-10-16T20:21:31;18.60;58.40
74511;DHT22;62991;50.040;18.400;2022-10-16T20:24:32;18.60;58.50
74511;DHT22;62991;50.040;18.400;2022-10-16T20:27:32;18.60;58.50
74511;DHT22;62991;50.040;18.400;2022-10-16T20:30:38;18.60;58.50
74511;DHT22;62991;50.040;18.400;2022-10-16T20:33:39;18.50;58.50
74511;DHT22;62991;50.040;18.400;2022-10-16T20:36:41;18.50;58.60
74511;DHT22;62991;50.040;18.400;2022-10-16T20:39:44;18.50;58.70
74511;DHT22;62991;50.040;18.400;2022-10-16T20:42:45;18.50;58.70
74511;DHT22;62991;50.040;18.400;2022-10-16T20:45:46;18.50;58.80
74511;DHT22;62991;50.040;18.400;2022-10-16T20:48:47;18.50;58.70
74511;DHT22;62991;50.040;18.400;2022-10-16T20:51:47;18.50;58.80
74511;DHT22;62991;50.040;18.400;2022-10-16T20:54:49;18.50;58.80
74511;DHT22;62991;50.040;18.400;2022-10-16T20:57:50;18.50;58.80
74511;DHT22;62991;50.040;18.400;2022-10-16T21:00:50;18.40;58.80